createdAt,value
2022-08-17T00:01:32.709Z,100.00
2022-08-17T00:04:19.457Z,100.00
2022-08-17T00:06:47.570Z,100.00
2022-08-17T00:09:18.274Z,100.00
2022-08-17T00:12:41.500Z,100.00
2022-08-17T00:14:34.973Z,100.00
2022-08-17T00:17:03.814Z,100.00
2022-08-17T00:19:32.566Z,100.00
2022-08-17T00:22:30.964Z,100.00
2022-08-17T00:24:49.322Z,100.00
2022-08-17T00:27:15.878Z,100.00
2022-08-17T00:29:42.728Z,100.00
2022-08-17T00:33:14.072Z,100.00
2022-08-17T00:34:55.747Z,100.00
2022-08-17T00:37:22.271Z,100.00
2022-08-17T00:39:48.934Z,100.00
2022-08-17T00:42:17.238Z,100.00
2022-08-17T00:44:43.978Z,100.00
2022-08-17T00:47:10.509Z,100.00
2022-08-17T00:49:37.061Z,100.00
2022-08-17T00:52:11.897Z,100.00
2022-08-17T00:54:42.473Z,100.00
2022-08-17T00:57:23.401Z,100.00
2022-08-17T01:00:02.774Z,100.00
2022-08-17T01:02:42.633Z,100.00
2022-08-17T01:05:16.423Z,100.00
2022-08-17T01:07:47.930Z,100.00
2022-08-17T01:10:58.228Z,100.00
2022-08-17T01:13:04.999Z,100.00
2022-08-17T01:15:34.727Z,100.00
2022-08-17T01:18:01.505Z,100.00
2022-08-17T01:20:28.233Z,100.00
2022-08-17T01:22:54.987Z,100.00
2022-08-17T01:25:22.296Z,100.00
2022-08-17T01:27:49.635Z,100.00
2022-08-17T01:30:57.420Z,100.00
2022-08-17T01:33:04.307Z,100.00
2022-08-17T01:35:31.513Z,100.00
2022-08-17T01:37:58.122Z,100.00
2022-08-17T01:40:39.179Z,100.00
2022-08-17T01:43:12.044Z,100.00
2022-08-17T01:45:45.996Z,100.00
2022-08-17T01:48:13.614Z,100.00
2022-08-17T01:50:43.373Z,100.00
2022-08-17T01:53:18.255Z,100.00
2022-08-17T01:55:53.786Z,100.00
2022-08-17T01:58:20.913Z,100.00
2022-08-17T02:01:00.475Z,100.00
2022-08-17T02:03:29.646Z,100.00
2022-08-17T02:05:56.899Z,100.00
2022-08-17T02:08:37.229Z,100.00
2022-08-17T02:11:14.553Z,100.00
2022-08-17T02:13:41.806Z,100.00
2022-08-17T02:16:08.414Z,100.00
2022-08-17T02:18:35.073Z,100.00
2022-08-17T02:21:02.117Z,100.00
2022-08-17T02:23:32.323Z,100.00
2022-08-17T02:26:00.630Z,100.00
2022-08-17T02:28:28.576Z,100.00
2022-08-17T02:31:00.859Z,100.00
2022-08-17T02:33:43.188Z,100.00
2022-08-17T02:36:12.737Z,100.00
2022-08-17T02:38:40.655Z,100.00
2022-08-17T02:41:08.174Z,100.00
2022-08-17T02:43:35.237Z,100.00
2022-08-17T02:46:01.948Z,100.00
2022-08-17T02:48:31.526Z,100.00
2022-08-17T02:50:58.915Z,100.00
2022-08-17T02:53:25.854Z,100.00
2022-08-17T02:55:53.114Z,100.00
2022-08-17T02:58:34.424Z,100.00
2022-08-17T03:01:06.533Z,100.00
2022-08-17T03:03:34.202Z,100.00
2022-08-17T03:06:01.582Z,100.00
2022-08-17T03:08:28.286Z,100.00
2022-08-17T03:10:55.102Z,100.00
2022-08-17T03:13:22.357Z,100.00
2022-08-17T03:15:48.915Z,100.00
2022-08-17T03:18:24.071Z,100.00
2022-08-17T03:20:52.212Z,100.00
2022-08-17T03:23:18.790Z,100.00
2022-08-17T03:25:52.993Z,100.00
2022-08-17T03:28:20.301Z,100.00
2022-08-17T03:30:46.978Z,100.00
2022-08-17T03:33:13.743Z,100.00
2022-08-17T03:35:41.198Z,100.00
2022-08-17T03:38:08.805Z,100.00
2022-08-17T03:40:57.632Z,100.00
2022-08-17T03:43:22.668Z,100.00
2022-08-17T03:46:11.025Z,100.00
2022-08-17T03:49:13.865Z,100.00
2022-08-17T03:51:58.548Z,100.00
2022-08-17T03:54:43.887Z,100.00
2022-08-17T03:57:12.446Z,100.00
2022-08-17T03:59:41.172Z,100.00
2022-08-17T04:02:16.362Z,100.00
2022-08-17T04:04:42.946Z,100.00
2022-08-17T04:07:09.973Z,100.00
2022-08-17T04:09:36.640Z,100.00
2022-08-17T04:12:05.102Z,100.00
2022-08-17T04:14:47.751Z,100.00
2022-08-17T04:17:24.297Z,100.00
2022-08-17T04:19:51.039Z,100.00
2022-08-17T04:22:32.572Z,100.00
2022-08-17T04:25:08.867Z,100.00
2022-08-17T04:27:36.111Z,100.00
2022-08-17T04:30:02.649Z,100.00
2022-08-17T04:33:04.769Z,100.00
2022-08-17T04:35:26.584Z,100.00
2022-08-17T04:37:53.264Z,100.00
2022-08-17T04:40:40.135Z,100.00
2022-08-17T04:43:16.486Z,100.00
2022-08-17T04:45:55.507Z,100.00
2022-08-17T04:48:34.764Z,93.31
2022-08-17T04:51:10.188Z,87.06
2022-08-17T04:53:38.148Z,82.88
2022-08-17T04:56:04.983Z,79.80
2022-08-17T04:58:31.612Z,70.80
2022-08-17T05:00:58.155Z,66.19
2022-08-17T05:03:24.723Z,60.81
2022-08-17T05:05:51.394Z,65.79
2022-08-17T05:08:19.550Z,61.96
2022-08-17T05:10:47.672Z,56.65
2022-08-17T05:13:17.240Z,55.30
2022-08-17T05:15:47.937Z,56.19
2022-08-17T05:18:15.277Z,55.84
2022-08-17T05:20:42.288Z,53.67
2022-08-17T05:23:11.592Z,54.41
2022-08-17T05:25:41.007Z,54.12
2022-08-17T05:28:09.143Z,52.65
2022-08-17T05:30:37.146Z,54.11
2022-08-17T05:33:07.021Z,53.29
2022-08-17T05:35:36.028Z,51.12
2022-08-17T05:38:02.848Z,46.93
2022-08-17T05:40:32.845Z,49.56
2022-08-17T05:43:13.669Z,48.80
2022-08-17T05:45:55.742Z,48.61
2022-08-17T05:48:39.807Z,46.69
2022-08-17T05:51:16.473Z,46.07
2022-08-17T05:53:45.982Z,46.41
2022-08-17T05:56:30.468Z,46.37
2022-08-17T05:59:18.391Z,44.27
2022-08-17T06:02:03.357Z,43.61
2022-08-17T06:04:54.725Z,43.21
2022-08-17T06:07:54.355Z,42.99
2022-08-17T06:10:46.983Z,40.79
2022-08-17T06:13:23.962Z,40.74
2022-08-17T06:16:04.360Z,40.18
2022-08-17T06:18:59.926Z,39.92
2022-08-17T06:21:32.806Z,39.45
2022-08-17T06:24:15.954Z,36.75
2022-08-17T06:26:45.419Z,39.25
2022-08-17T06:29:30.314Z,38.52
2022-08-17T06:31:57.670Z,36.32
2022-08-17T06:34:24.620Z,38.30
2022-08-17T06:37:25.522Z,36.05
2022-08-17T06:40:26.199Z,34.31
2022-08-17T06:43:22.596Z,30.79
2022-08-17T06:45:57.487Z,32.78
2022-08-17T06:48:49.321Z,31.59
2022-08-17T06:51:27.402Z,29.04
2022-08-17T06:54:06.554Z,30.63
2022-08-17T06:56:53.547Z,31.65
2022-08-17T06:59:26.865Z,27.66
2022-08-17T07:02:19.582Z,28.39
2022-08-17T07:04:56.307Z,31.04
2022-08-17T07:07:41.675Z,30.58
2022-08-17T07:10:09.637Z,29.54
2022-08-17T07:12:40.851Z,31.19
2022-08-17T07:15:19.445Z,26.59
2022-08-17T07:17:48.375Z,26.89
2022-08-17T07:20:20.562Z,27.55
2022-08-17T07:23:01.824Z,26.23
2022-08-17T07:25:30.449Z,28.25
2022-08-17T07:28:00.334Z,23.61
2022-08-17T07:30:48.977Z,22.28
2022-08-17T07:33:23.391Z,25.71
2022-08-17T07:35:50.538Z,28.11
2022-08-17T07:38:25.165Z,25.08
2022-08-17T07:40:57.706Z,25.75
2022-08-17T07:43:29.617Z,25.22
2022-08-17T07:46:42.431Z,24.34
2022-08-17T07:49:08.881Z,25.63
2022-08-17T07:51:43.866Z,25.54
2022-08-17T07:54:16.572Z,26.24
2022-08-17T07:56:48.046Z,22.53
2022-08-17T07:59:24.073Z,21.41
2022-08-17T08:01:58.944Z,24.65
2022-08-17T08:07:17.925Z,24.40
2022-08-17T08:09:59.389Z,24.48
2022-08-17T08:12:33.887Z,24.84
2022-08-17T08:15:23.749Z,23.90
2022-08-17T08:18:00.959Z,24.26
2022-08-17T08:20:51.678Z,24.34
2022-08-17T08:23:39.575Z,23.76
2022-08-17T08:26:29.680Z,24.56
2022-08-17T08:29:01.383Z,23.28
2022-08-17T08:31:52.031Z,23.90
2022-08-17T08:34:53.164Z,24.09
2022-08-17T08:37:48.002Z,22.43
2022-08-17T08:40:36.434Z,23.31
2022-08-17T08:43:29.302Z,21.85
2022-08-17T08:46:28.159Z,20.81
2022-08-17T08:49:18.698Z,19.13
2022-08-17T08:52:00.323Z,20.08
2022-08-17T08:54:48.316Z,21.94
2022-08-17T08:57:33.377Z,18.34
2022-08-17T09:00:12.865Z,19.94
2022-08-17T09:03:04.344Z,23.87
2022-08-17T09:06:03.740Z,21.65
2022-08-17T09:09:06.409Z,21.86
2022-08-17T09:12:04.044Z,23.21
2022-08-17T09:14:45.210Z,21.39
2022-08-17T09:17:24.295Z,19.57
2022-08-17T09:19:50.833Z,20.43
2022-08-17T09:22:24.282Z,21.47
2022-08-17T09:25:06.678Z,20.55
2022-08-17T09:27:47.716Z,19.75
2022-08-17T09:30:14.966Z,20.32
2022-08-17T09:32:46.094Z,18.62
2022-08-17T09:35:17.418Z,19.61
2022-08-17T09:37:51.419Z,19.17
2022-08-17T09:40:25.399Z,16.95
2022-08-17T09:43:33.979Z,17.59
2022-08-17T09:46:11.953Z,20.67
2022-08-17T09:49:09.667Z,17.68
2022-08-17T09:51:40.204Z,17.56
2022-08-17T09:54:38.767Z,19.61
2022-08-17T09:57:43.571Z,20.73
2022-08-17T10:00:19.173Z,20.63
2022-08-17T10:03:04.474Z,21.25
2022-08-17T10:05:40.096Z,19.37
2022-08-17T10:08:29.974Z,18.54
2022-08-17T10:11:11.411Z,19.50
2022-08-17T10:13:47.208Z,18.58
2022-08-17T10:16:34.637Z,18.67
2022-08-17T10:19:22.907Z,17.39
2022-08-17T10:22:19.335Z,17.41
2022-08-17T10:25:23.794Z,17.25
2022-08-17T10:27:56.604Z,17.45
2022-08-17T10:30:27.449Z,19.19
2022-08-17T10:33:01.727Z,17.88
2022-08-17T10:35:46.130Z,19.02
2022-08-17T10:38:28.001Z,18.28
2022-08-17T10:41:06.632Z,18.60
2022-08-17T10:44:38.757Z,21.03
2022-08-17T10:46:53.985Z,20.46
2022-08-17T10:49:21.107Z,18.93
2022-08-17T10:51:53.470Z,18.15
2022-08-17T10:54:25.742Z,20.21
2022-08-17T10:56:54.259Z,21.33
2022-08-17T10:59:35.865Z,19.00
2022-08-17T11:02:23.180Z,21.01
2022-08-17T11:04:52.311Z,19.16
2022-08-17T11:08:05.923Z,20.00
2022-08-17T11:11:23.232Z,20.19
2022-08-17T11:14:11.294Z,22.72
2022-08-17T11:16:50.224Z,21.66
2022-08-17T11:19:41.199Z,22.20
2022-08-17T11:22:33.583Z,24.40
2022-08-17T11:25:15.139Z,20.75
2022-08-17T11:27:43.958Z,20.75
2022-08-17T11:30:51.904Z,19.90
2022-08-17T11:33:38.161Z,19.91
2022-08-17T11:36:23.508Z,21.90
2022-08-17T11:39:25.722Z,24.14
2022-08-17T11:42:25.548Z,25.60
2022-08-17T11:45:09.065Z,23.91
2022-08-17T11:48:27.220Z,26.07
2022-08-17T11:51:32.414Z,25.87
2022-08-17T11:56:59.819Z,21.87
2022-08-17T11:59:42.000Z,23.99
2022-08-17T12:02:32.921Z,25.78
2022-08-17T12:05:14.407Z,24.98
2022-08-17T12:07:47.877Z,22.30
2022-08-17T12:10:18.951Z,23.40
2022-08-17T12:12:50.186Z,23.20
2022-08-17T12:15:21.815Z,20.98
2022-08-17T12:17:54.060Z,21.78
2022-08-17T12:20:27.816Z,23.37
2022-08-17T12:23:07.960Z,22.57
2022-08-17T12:25:40.990Z,22.65
2022-08-17T12:28:38.670Z,23.51
2022-08-17T12:31:14.157Z,22.75
2022-08-17T12:33:46.100Z,21.86
2022-08-17T12:36:15.898Z,21.16
2022-08-17T12:38:57.200Z,25.15
2022-08-17T12:41:46.973Z,23.34
2022-08-17T12:44:26.101Z,22.88
2022-08-17T12:47:04.706Z,21.93
2022-08-17T12:49:32.996Z,21.31
2022-08-17T12:52:02.553Z,24.71
2022-08-17T12:54:45.163Z,25.42
2022-08-17T12:57:20.375Z,24.19
2022-08-17T12:59:54.120Z,23.58
2022-08-17T13:02:28.417Z,23.81
2022-08-17T13:04:58.512Z,24.94
2022-08-17T13:07:35.073Z,24.86
2022-08-17T13:10:02.275Z,23.90
2022-08-17T13:12:32.374Z,24.85
2022-08-17T13:15:00.535Z,23.78
2022-08-17T13:17:28.841Z,24.94
2022-08-17T13:19:55.576Z,24.33
2022-08-17T13:22:24.536Z,22.63
2022-08-17T13:24:55.493Z,23.63
2022-08-17T13:27:25.011Z,24.93
2022-08-17T13:29:55.572Z,26.11
2022-08-17T13:32:31.157Z,24.29
2022-08-17T13:35:14.969Z,23.70
2022-08-17T13:37:58.111Z,25.18
2022-08-17T13:40:53.162Z,25.50
2022-08-17T13:43:44.928Z,23.65
2022-08-17T13:46:26.599Z,23.68
2022-08-17T13:49:03.836Z,24.72
2022-08-17T13:51:43.975Z,25.75
2022-08-17T13:54:22.591Z,26.05
2022-08-17T13:56:51.872Z,26.16
2022-08-17T13:59:52.651Z,26.11
2022-08-17T14:02:20.301Z,27.43
2022-08-17T14:04:47.227Z,26.79
2022-08-17T14:07:15.316Z,25.60
2022-08-17T14:10:11.078Z,27.07
2022-08-17T14:12:39.984Z,26.70
2022-08-17T14:15:06.844Z,26.46
2022-08-17T14:17:38.442Z,27.35
2022-08-17T14:20:11.778Z,26.84
2022-08-17T14:22:43.259Z,26.99
2022-08-17T14:25:12.444Z,27.87
2022-08-17T14:27:51.852Z,27.58
2022-08-17T14:30:24.039Z,26.68
2022-08-17T14:32:52.005Z,27.53
2022-08-17T14:35:22.498Z,27.17
2022-08-17T14:37:50.654Z,27.57
2022-08-17T14:40:20.400Z,29.38
2022-08-17T14:42:47.139Z,30.28
2022-08-17T14:45:31.703Z,29.26
2022-08-17T14:48:01.169Z,28.74
2022-08-17T14:50:27.730Z,29.30
2022-08-17T14:52:56.014Z,30.38
2022-08-17T14:55:24.998Z,29.58
2022-08-17T14:57:51.764Z,29.14
2022-08-17T15:00:18.673Z,29.99
2022-08-17T15:02:53.708Z,29.97
2022-08-17T15:05:23.534Z,29.77
2022-08-17T15:07:50.469Z,29.76
2022-08-17T15:10:17.719Z,31.64
2022-08-17T15:12:44.259Z,30.42
2022-08-17T15:15:14.459Z,31.03
2022-08-17T15:17:45.885Z,31.04
2022-08-17T15:20:17.065Z,30.72
2022-08-17T15:22:45.470Z,30.72
2022-08-17T15:25:13.597Z,29.44
2022-08-17T15:27:40.523Z,30.36
2022-08-17T15:30:08.871Z,30.50
2022-08-17T15:32:38.168Z,31.08
2022-08-17T15:35:06.929Z,29.87
2022-08-17T15:37:33.597Z,29.83
2022-08-17T15:40:03.540Z,29.70
2022-08-17T15:42:30.177Z,29.47
2022-08-17T15:44:56.852Z,29.75
2022-08-17T15:47:23.605Z,29.70
2022-08-17T15:49:50.871Z,29.60
2022-08-17T15:52:23.802Z,29.85
2022-08-17T15:54:53.393Z,29.45
2022-08-17T15:57:20.470Z,29.85
2022-08-17T15:59:52.096Z,30.01
2022-08-17T16:03:45.452Z,29.86
2022-08-17T16:05:19.916Z,29.71
2022-08-17T16:07:47.053Z,29.75
2022-08-17T16:10:18.813Z,30.36
2022-08-17T16:12:47.954Z,30.26
2022-08-17T16:15:15.314Z,30.17
2022-08-17T16:17:42.306Z,30.28
2022-08-17T16:20:19.627Z,30.45
2022-08-17T16:22:49.456Z,30.67
2022-08-17T16:25:52.675Z,30.20
2022-08-17T16:28:16.421Z,30.62
2022-08-17T16:30:43.663Z,30.83
2022-08-17T16:33:11.612Z,31.16
2022-08-17T16:35:38.688Z,31.60
2022-08-17T16:38:05.315Z,31.04
2022-08-17T16:40:36.053Z,31.84
2022-08-17T16:43:04.387Z,31.70
2022-08-17T16:45:36.800Z,31.39
2022-08-17T16:48:04.389Z,31.47
2022-08-17T16:50:31.950Z,31.41
2022-08-17T16:53:10.705Z,30.72
2022-08-17T16:55:38.277Z,31.14
2022-08-17T16:58:06.680Z,31.49
2022-08-17T17:00:33.663Z,31.71
2022-08-17T17:03:30.787Z,31.46
2022-08-17T17:06:22.458Z,31.82
2022-08-17T17:09:02.629Z,31.79
2022-08-17T17:11:40.357Z,32.45
2022-08-17T17:14:14.617Z,32.92
2022-08-17T17:17:25.313Z,32.91
2022-08-17T17:20:19.704Z,32.76
2022-08-17T17:23:15.104Z,32.36
2022-08-17T17:25:59.694Z,32.43
2022-08-17T17:28:42.624Z,32.76
2022-08-17T17:31:18.374Z,33.24
2022-08-17T17:33:55.656Z,32.62
2022-08-17T17:36:45.325Z,32.66
2022-08-17T17:39:30.769Z,33.63
2022-08-17T17:42:07.751Z,33.46
2022-08-17T17:44:40.980Z,33.45
2022-08-17T17:47:07.678Z,33.18
2022-08-17T17:49:41.554Z,33.39
2022-08-17T17:52:19.420Z,33.34
2022-08-17T17:55:01.180Z,33.40
2022-08-17T17:57:33.597Z,33.27
2022-08-17T18:00:21.776Z,33.31
2022-08-17T18:02:57.161Z,33.79
2022-08-17T18:05:38.863Z,34.23
2022-08-17T18:08:17.457Z,33.66
2022-08-17T18:10:55.781Z,35.26
2022-08-17T18:14:14.315Z,36.48
2022-08-17T18:16:42.886Z,37.38
2022-08-17T18:19:15.184Z,39.19
2022-08-17T18:21:45.927Z,38.65
2022-08-17T18:24:13.594Z,38.55
2022-08-17T18:27:02.033Z,39.28
2022-08-17T18:29:42.747Z,39.37
2022-08-17T18:32:26.785Z,41.49
2022-08-17T18:35:27.838Z,45.05
2022-08-17T18:38:22.459Z,45.78
2022-08-17T18:41:00.219Z,46.51
2022-08-17T18:43:57.235Z,47.92
2022-08-17T18:46:36.630Z,50.24
2022-08-17T18:49:08.491Z,52.09
2022-08-17T18:51:42.073Z,53.54
2022-08-17T18:54:15.224Z,55.47
2022-08-17T18:57:03.485Z,55.92
2022-08-17T18:59:39.043Z,56.22
2022-08-17T19:02:19.424Z,57.31
2022-08-17T19:05:11.057Z,57.06
2022-08-17T19:07:46.959Z,58.12
2022-08-17T19:10:25.915Z,57.27
2022-08-17T19:13:00.404Z,58.39
2022-08-17T19:15:35.465Z,58.94
2022-08-17T19:18:34.575Z,59.74
2022-08-17T19:21:10.526Z,59.19
2022-08-17T19:24:03.314Z,59.98
2022-08-17T19:26:53.588Z,62.90
2022-08-17T19:29:42.237Z,63.05
2022-08-17T19:32:10.312Z,63.39
2022-08-17T19:34:39.078Z,62.83
2022-08-17T19:37:20.915Z,64.16
2022-08-17T19:40:41.789Z,64.48
2022-08-17T19:43:48.247Z,63.18
2022-08-17T19:46:49.942Z,63.24
2022-08-17T19:49:33.273Z,63.02
2022-08-17T19:52:29.060Z,63.09
2022-08-17T19:54:59.557Z,61.51
2022-08-17T19:58:11.292Z,63.27
2022-08-17T20:00:50.435Z,63.54
2022-08-17T20:03:31.647Z,63.59
2022-08-17T20:06:13.427Z,64.14
2022-08-17T20:09:18.904Z,64.73
2022-08-17T20:11:51.690Z,65.40
2022-08-17T20:14:27.957Z,66.91
2022-08-17T20:16:59.291Z,67.57
2022-08-17T20:19:31.173Z,68.67
2022-08-17T20:22:09.672Z,69.24
2022-08-17T20:24:43.646Z,68.93
2022-08-17T20:27:21.345Z,68.92
2022-08-17T20:30:03.354Z,70.65
2022-08-17T20:32:48.341Z,72.07
2022-08-17T20:35:16.499Z,71.65
2022-08-17T20:37:52.090Z,72.08
2022-08-17T20:40:23.747Z,72.44
2022-08-17T20:42:50.306Z,72.31
2022-08-17T20:45:26.367Z,72.26
2022-08-17T20:48:30.552Z,72.70
2022-08-17T20:50:56.242Z,72.00
2022-08-17T20:53:55.082Z,72.30
2022-08-17T20:56:49.272Z,73.08
2022-08-17T20:59:25.660Z,75.13
2022-08-17T21:02:17.491Z,74.64
2022-08-17T21:05:25.287Z,75.32
2022-08-17T21:07:58.641Z,74.46
2022-08-17T21:10:25.285Z,74.63
2022-08-17T21:13:15.367Z,74.99
2022-08-17T21:15:42.310Z,75.73
2022-08-17T21:18:27.377Z,74.78
2022-08-17T21:21:21.854Z,74.37
2022-08-17T21:24:00.089Z,74.16
2022-08-17T21:26:50.450Z,75.21
2022-08-17T21:29:32.063Z,74.16
2022-08-17T21:31:59.140Z,75.19
2022-08-17T21:34:27.927Z,75.66
2022-08-17T21:36:56.807Z,76.18
2022-08-17T21:39:39.823Z,74.84
2022-08-17T21:42:06.965Z,75.90
2022-08-17T21:44:37.375Z,76.56
2022-08-17T21:47:20.895Z,77.04
2022-08-17T21:49:47.910Z,76.69
2022-08-17T21:52:17.538Z,76.99
2022-08-17T21:54:52.483Z,75.66
2022-08-17T21:57:27.401Z,74.11
2022-08-17T21:59:57.160Z,75.91
2022-08-17T22:02:38.069Z,74.12
2022-08-17T22:05:11.865Z,73.63
2022-08-17T22:07:40.557Z,73.86
2022-08-17T22:10:27.514Z,73.95
2022-08-17T22:13:16.980Z,71.94
2022-08-17T22:15:45.765Z,71.64
2022-08-17T22:18:19.861Z,71.43
2022-08-17T22:20:51.726Z,71.40
2022-08-17T22:23:45.114Z,73.12
2022-08-17T22:26:14.627Z,73.04
2022-08-17T22:28:52.309Z,72.94
2022-08-17T22:31:30.440Z,72.96
2022-08-17T22:34:00.031Z,73.92
2022-08-17T22:36:33.004Z,74.41
2022-08-17T22:39:11.327Z,74.40
2022-08-17T22:41:47.038Z,73.19
2022-08-17T22:44:37.515Z,73.80
2022-08-17T22:47:17.023Z,74.15
2022-08-17T22:49:56.376Z,74.24
2022-08-17T22:52:23.391Z,74.99
2022-08-17T22:55:32.408Z,74.87
2022-08-17T22:58:17.888Z,75.79
2022-08-17T23:00:49.547Z,76.55
2022-08-17T23:03:22.237Z,76.26
2022-08-17T23:06:10.036Z,76.64
2022-08-17T23:08:54.612Z,77.28
2022-08-17T23:11:42.994Z,76.38
2022-08-17T23:14:15.780Z,75.32
2022-08-17T23:16:42.915Z,75.83
2022-08-17T23:19:15.505Z,75.58
2022-08-17T23:21:44.894Z,75.88
2022-08-17T23:24:17.736Z,76.59
2022-08-17T23:26:44.305Z,77.60
2022-08-17T23:29:10.858Z,80.24
2022-08-17T23:31:38.864Z,82.97
2022-08-17T23:34:09.913Z,82.88
2022-08-17T23:36:36.521Z,80.72
2022-08-17T23:39:05.441Z,81.32
2022-08-17T23:41:35.485Z,79.81
2022-08-17T23:44:04.449Z,79.51
2022-08-17T23:46:31.117Z,80.72
2022-08-17T23:48:57.673Z,80.94
2022-08-17T23:51:29.070Z,83.37
2022-08-17T23:54:05.781Z,83.54
2022-08-17T23:56:37.713Z,84.55
2022-08-17T23:59:04.133Z,85.64
